createdAt,value
2023-12-03T00:00:18.968Z,11.00
2023-12-03T00:01:51.095Z,11.40
2023-12-03T00:03:24.606Z,9.50
2023-12-03T00:04:56.952Z,11.40
2023-12-03T00:06:29.255Z,11.60
2023-12-03T00:08:04.041Z,11.80
2023-12-03T00:09:38.336Z,13.20
2023-12-03T00:11:11.057Z,12.00
2023-12-03T00:12:43.102Z,9.80
2023-12-03T00:14:15.451Z,11.20
2023-12-03T00:15:47.558Z,12.30
2023-12-03T00:17:19.552Z,12.30
2023-12-03T00:18:52.020Z,10.20
2023-12-03T00:20:24.195Z,11.40
2023-12-03T00:21:56.206Z,11.40
2023-12-03T00:23:28.964Z,10.10
2023-12-03T00:25:03.159Z,9.30
2023-12-03T00:26:35.146Z,9.20
2023-12-03T00:28:07.261Z,10.80
2023-12-03T00:29:40.241Z,12.40
2023-12-03T00:31:12.179Z,11.60
2023-12-03T00:32:46.107Z,12.70
2023-12-03T00:34:21.407Z,11.70
2023-12-03T00:35:53.679Z,10.70
2023-12-03T00:37:25.511Z,11.50
2023-12-03T00:38:58.779Z,11.60
2023-12-03T00:40:31.132Z,11.30
2023-12-03T00:42:03.244Z,11.40
2023-12-03T00:43:35.273Z,9.40
2023-12-03T00:45:08.486Z,8.20
2023-12-03T00:46:40.651Z,11.40
2023-12-03T00:48:12.603Z,10.00
2023-12-03T00:49:45.793Z,11.50
2023-12-03T00:51:18.127Z,8.80
2023-12-03T00:52:50.244Z,10.60
2023-12-03T00:54:22.226Z,11.10
2023-12-03T00:55:55.669Z,12.00
2023-12-03T00:57:27.699Z,12.00
2023-12-03T00:58:59.764Z,11.40
2023-12-03T01:00:33.474Z,10.20
2023-12-03T01:02:06.215Z,10.90
2023-12-03T01:03:39.341Z,12.20
2023-12-03T01:05:11.437Z,9.70
2023-12-03T01:06:44.944Z,11.40
2023-12-03T01:08:17.012Z,11.00
2023-12-03T01:09:49.500Z,11.40
2023-12-03T01:11:35.169Z,9.70
2023-12-03T01:13:09.233Z,12.50
2023-12-03T01:14:41.238Z,8.10
2023-12-03T01:16:17.828Z,11.50
2023-12-03T01:17:49.767Z,11.60
2023-12-03T01:19:21.801Z,9.90
2023-12-03T01:20:53.852Z,12.20
2023-12-03T01:22:25.979Z,9.90
2023-12-03T01:23:59.559Z,9.00
2023-12-03T01:25:32.351Z,9.00
2023-12-03T01:27:06.165Z,11.40
2023-12-03T01:28:38.349Z,11.70
2023-12-03T01:30:12.989Z,11.40
2023-12-03T01:31:45.357Z,10.80
2023-12-03T01:33:17.446Z,11.80
2023-12-03T01:34:49.414Z,13.00
2023-12-03T01:36:21.416Z,8.90
2023-12-03T01:37:53.392Z,12.40
2023-12-03T01:39:27.187Z,11.50
2023-12-03T01:40:59.144Z,12.60
2023-12-03T01:42:32.485Z,13.20
2023-12-03T01:44:05.186Z,11.50
2023-12-03T01:45:39.843Z,12.00
2023-12-03T01:47:11.889Z,13.60
2023-12-03T01:48:46.322Z,11.40
2023-12-03T01:50:20.587Z,13.70
2023-12-03T01:51:53.624Z,13.70
2023-12-03T01:53:28.498Z,12.60
2023-12-03T01:55:01.585Z,10.90
2023-12-03T01:56:34.808Z,12.80
2023-12-03T01:58:07.446Z,14.00
2023-12-03T01:59:39.690Z,11.40
2023-12-03T02:01:11.698Z,11.20
2023-12-03T02:02:44.264Z,12.00
2023-12-03T02:04:16.382Z,11.50
2023-12-03T02:06:12.878Z,11.60
2023-12-03T02:07:45.009Z,13.40
2023-12-03T02:09:17.976Z,13.80
2023-12-03T02:10:49.870Z,11.90
2023-12-03T02:12:21.950Z,13.00
2023-12-03T02:13:54.130Z,9.20
2023-12-03T02:15:27.023Z,13.90
2023-12-03T02:16:59.400Z,12.40
2023-12-03T02:18:34.736Z,12.40
2023-12-03T02:20:09.831Z,14.50
2023-12-03T02:21:42.241Z,14.20
2023-12-03T02:23:16.224Z,12.80
2023-12-03T02:24:48.224Z,11.40
2023-12-03T02:26:20.435Z,12.40
2023-12-03T02:27:52.524Z,13.20
2023-12-03T02:29:24.499Z,11.30
2023-12-03T02:30:56.542Z,10.90
2023-12-03T02:32:30.304Z,10.50
2023-12-03T02:34:12.628Z,13.50
2023-12-03T02:35:44.710Z,13.80
2023-12-03T02:37:17.274Z,13.80
2023-12-03T02:38:49.191Z,14.10
2023-12-03T02:40:21.332Z,12.40
2023-12-03T02:41:53.340Z,13.40
2023-12-03T02:43:29.045Z,13.30
2023-12-03T02:45:01.088Z,12.90
2023-12-03T02:46:33.055Z,12.00
2023-12-03T02:48:06.417Z,11.90
2023-12-03T02:49:38.746Z,12.80
2023-12-03T02:51:11.267Z,13.90
2023-12-03T02:52:43.371Z,13.90
2023-12-03T02:54:15.301Z,14.50
2023-12-03T02:55:47.246Z,11.40
2023-12-03T02:57:19.115Z,12.70
2023-12-03T02:58:51.115Z,13.00
2023-12-03T03:00:23.067Z,13.30
2023-12-03T03:01:55.303Z,15.50
2023-12-03T03:03:27.404Z,12.00
2023-12-03T03:04:59.590Z,14.00
2023-12-03T03:06:33.042Z,12.80
2023-12-03T03:08:05.351Z,14.80
2023-12-03T03:09:37.319Z,11.50
2023-12-03T03:11:09.997Z,12.80
2023-12-03T03:12:42.443Z,13.50
2023-12-03T03:14:14.538Z,12.30
2023-12-03T03:15:47.129Z,13.70
2023-12-03T03:17:19.086Z,13.70
2023-12-03T03:18:52.749Z,13.50
2023-12-03T03:20:24.731Z,11.70
2023-12-03T03:21:57.934Z,15.00
2023-12-03T03:23:30.177Z,13.70
2023-12-03T03:25:04.735Z,14.50
2023-12-03T03:26:40.110Z,11.90
2023-12-03T03:28:12.112Z,13.00
2023-12-03T03:29:43.983Z,14.80
2023-12-03T03:31:15.893Z,13.40
2023-12-03T03:32:47.806Z,15.10
2023-12-03T03:34:19.922Z,11.70
2023-12-03T03:35:52.134Z,12.50
2023-12-03T03:37:24.049Z,14.50
2023-12-03T03:38:55.993Z,13.10
2023-12-03T03:40:27.998Z,13.20
2023-12-03T03:41:59.869Z,15.00
2023-12-03T03:43:31.940Z,13.50
2023-12-03T03:45:04.741Z,13.20
2023-12-03T03:46:37.216Z,12.50
2023-12-03T03:48:09.192Z,14.00
2023-12-03T03:49:42.782Z,13.40
2023-12-03T03:51:14.752Z,13.60
2023-12-03T03:52:46.696Z,13.30
2023-12-03T03:54:18.659Z,12.80
2023-12-03T03:55:50.993Z,12.30
2023-12-03T03:57:24.889Z,13.70
2023-12-03T03:58:56.886Z,13.10
2023-12-03T04:00:30.069Z,14.40
2023-12-03T04:02:03.113Z,14.00
2023-12-03T04:03:35.942Z,15.10
2023-12-03T04:05:09.524Z,13.70
2023-12-03T04:06:45.942Z,11.10
2023-12-03T04:08:20.049Z,9.20
2023-12-03T04:09:52.027Z,14.20
2023-12-03T04:11:24.322Z,13.00
2023-12-03T04:12:57.901Z,13.70
2023-12-03T04:14:30.834Z,12.10
2023-12-03T04:16:03.119Z,13.20
2023-12-03T04:17:35.063Z,13.40
2023-12-03T04:19:07.988Z,14.90
2023-12-03T04:20:40.090Z,15.50
2023-12-03T04:22:12.044Z,12.10
2023-12-03T04:23:44.369Z,12.50
2023-12-03T04:25:16.633Z,13.10
2023-12-03T04:26:50.112Z,13.50
2023-12-03T04:28:21.927Z,11.30
2023-12-03T04:29:53.829Z,12.00
2023-12-03T04:31:30.825Z,12.60
2023-12-03T04:33:03.036Z,14.10
2023-12-03T04:34:35.117Z,15.30
2023-12-03T04:36:10.730Z,13.60
2023-12-03T04:37:42.687Z,9.40
2023-12-03T04:39:14.564Z,13.10
2023-12-03T04:40:46.486Z,10.90
2023-12-03T04:42:19.145Z,11.20
2023-12-03T04:43:51.174Z,11.90
2023-12-03T04:45:23.284Z,12.60
2023-12-03T04:46:55.655Z,12.80
2023-12-03T04:48:28.178Z,12.30
2023-12-03T04:50:00.684Z,12.90
2023-12-03T04:51:32.656Z,13.10
2023-12-03T04:53:04.533Z,12.20
2023-12-03T04:54:38.179Z,12.10
2023-12-03T04:56:12.578Z,13.30
2023-12-03T04:57:44.815Z,12.40
2023-12-03T04:59:18.632Z,8.30
2023-12-03T05:00:50.688Z,11.80
2023-12-03T05:02:27.692Z,10.70
2023-12-03T05:03:59.593Z,12.10
2023-12-03T05:05:31.515Z,10.90
2023-12-03T05:07:03.758Z,10.60
2023-12-03T05:08:35.777Z,9.50
2023-12-03T05:10:08.784Z,11.70
2023-12-03T05:11:41.797Z,10.80
2023-12-03T05:13:17.070Z,12.10
2023-12-03T05:14:49.072Z,12.40
2023-12-03T05:16:20.961Z,11.50
2023-12-03T05:17:52.960Z,11.40
2023-12-03T05:19:25.858Z,11.10
2023-12-03T05:20:58.998Z,10.20
2023-12-03T05:22:31.170Z,10.70
2023-12-03T05:24:03.211Z,11.50
2023-12-03T05:25:35.116Z,10.50
2023-12-03T05:27:07.208Z,9.60
2023-12-03T05:28:39.656Z,9.90
2023-12-03T05:30:14.438Z,10.50
2023-12-03T05:31:46.740Z,9.50
2023-12-03T05:33:19.208Z,11.80
2023-12-03T05:34:51.474Z,10.60
2023-12-03T05:36:26.372Z,11.50
2023-12-03T05:37:58.386Z,10.70
2023-12-03T05:39:32.966Z,10.00
2023-12-03T05:41:05.036Z,10.30
2023-12-03T05:42:37.110Z,9.30
2023-12-03T05:44:09.690Z,10.80
2023-12-03T05:45:43.874Z,10.20
2023-12-03T05:47:16.940Z,10.90
2023-12-03T05:48:49.095Z,10.90
2023-12-03T05:50:22.272Z,10.50
2023-12-03T05:51:55.769Z,10.00
2023-12-03T05:53:29.965Z,9.30
2023-12-03T05:55:02.014Z,8.50
2023-12-03T05:56:33.936Z,8.60
2023-12-03T05:58:06.640Z,9.40
2023-12-03T05:59:38.625Z,9.90
2023-12-03T06:01:10.609Z,9.00
2023-12-03T06:02:45.445Z,10.10
2023-12-03T06:04:17.389Z,9.10
2023-12-03T06:05:49.556Z,9.30
2023-12-03T06:07:21.660Z,9.00
2023-12-03T06:08:53.826Z,10.20
2023-12-03T06:10:25.679Z,9.00
2023-12-03T06:11:57.659Z,10.60
2023-12-03T06:13:29.765Z,9.30
2023-12-03T06:15:01.732Z,8.80
2023-12-03T06:16:33.744Z,9.20
2023-12-03T06:18:05.840Z,8.60
2023-12-03T06:19:38.741Z,8.70
2023-12-03T06:21:10.652Z,6.60
2023-12-03T06:22:42.558Z,9.30
2023-12-03T06:24:14.460Z,9.80
2023-12-03T06:25:46.539Z,7.80
2023-12-03T06:27:18.512Z,7.40
2023-12-03T06:28:50.426Z,9.20
2023-12-03T06:30:22.690Z,8.70
2023-12-03T06:31:54.614Z,8.60
2023-12-03T06:33:27.940Z,8.70
2023-12-03T06:35:00.657Z,8.60
2023-12-03T06:36:32.874Z,9.30
2023-12-03T06:38:04.893Z,8.40
2023-12-03T06:39:36.814Z,8.70
2023-12-03T06:41:08.857Z,7.70
2023-12-03T06:42:44.116Z,7.50
2023-12-03T06:44:30.954Z,8.10
2023-12-03T06:46:11.887Z,9.50
2023-12-03T06:47:44.189Z,8.90
2023-12-03T06:49:16.195Z,7.80
2023-12-03T06:50:49.690Z,7.90
2023-12-03T06:52:21.804Z,8.60
2023-12-03T06:53:53.805Z,7.90
2023-12-03T06:55:25.745Z,8.80
2023-12-03T06:56:57.910Z,8.20
2023-12-03T06:58:29.991Z,8.50
2023-12-03T07:00:02.037Z,8.40
2023-12-03T07:01:37.485Z,7.40
2023-12-03T07:03:11.396Z,9.30
2023-12-03T07:04:43.428Z,10.60
2023-12-03T07:06:17.186Z,9.90
2023-12-03T07:07:51.227Z,9.30
2023-12-03T07:09:37.521Z,7.30
2023-12-03T07:11:14.828Z,9.10
2023-12-03T07:12:47.862Z,9.60
2023-12-03T07:14:19.800Z,7.50
2023-12-03T07:15:52.239Z,8.50
2023-12-03T07:17:24.306Z,7.70
2023-12-03T07:18:56.494Z,8.90
2023-12-03T07:20:29.968Z,9.40
2023-12-03T07:22:02.008Z,9.30
2023-12-03T07:23:34.246Z,8.50
2023-12-03T07:25:09.299Z,7.40
2023-12-03T07:26:45.629Z,9.20
2023-12-03T07:28:24.010Z,9.40
2023-12-03T07:29:57.526Z,9.30
2023-12-03T07:31:29.467Z,8.70
2023-12-03T07:33:01.570Z,9.20
2023-12-03T07:34:33.965Z,7.70
2023-12-03T07:36:06.393Z,8.00
2023-12-03T07:37:41.276Z,9.90
2023-12-03T07:39:13.845Z,10.40
2023-12-03T07:40:46.990Z,8.40
2023-12-03T07:42:18.902Z,8.40
2023-12-03T07:43:50.923Z,7.30
2023-12-03T07:45:23.329Z,9.00
2023-12-03T07:46:55.463Z,9.10
2023-12-03T07:48:27.564Z,10.40
2023-12-03T07:50:01.031Z,9.50
2023-12-03T07:51:33.440Z,11.30
2023-12-03T07:53:05.392Z,10.40
2023-12-03T07:54:37.445Z,11.20
2023-12-03T07:56:10.129Z,9.70
2023-12-03T07:57:42.138Z,7.10
2023-12-03T07:59:37.609Z,8.20
2023-12-03T08:01:11.046Z,9.60
2023-12-03T08:02:43.766Z,8.60
2023-12-03T08:04:16.171Z,8.00
2023-12-03T08:05:48.361Z,9.50
2023-12-03T08:07:20.491Z,9.20
2023-12-03T08:08:55.375Z,7.70
2023-12-03T08:10:27.891Z,8.70
2023-12-03T08:11:59.803Z,5.60
2023-12-03T08:13:31.740Z,7.70
2023-12-03T08:15:03.874Z,8.80
2023-12-03T08:16:35.624Z,7.90
2023-12-03T08:18:07.486Z,8.20
2023-12-03T08:19:40.709Z,6.00
2023-12-03T08:21:12.797Z,7.70
2023-12-03T08:22:44.822Z,8.80
2023-12-03T08:24:16.626Z,8.70
2023-12-03T08:25:48.501Z,7.80
2023-12-03T08:27:20.681Z,7.20
2023-12-03T08:28:52.798Z,8.30
2023-12-03T08:30:26.829Z,7.90
2023-12-03T08:31:59.066Z,8.90
2023-12-03T08:33:31.469Z,9.40
2023-12-03T08:35:03.512Z,6.90
2023-12-03T08:36:36.152Z,7.10
2023-12-03T08:38:08.108Z,6.20
2023-12-03T08:39:39.954Z,8.30
2023-12-03T08:41:11.764Z,8.80
2023-12-03T08:42:45.720Z,10.40
2023-12-03T08:44:17.589Z,7.70
2023-12-03T08:45:49.434Z,7.00
2023-12-03T08:47:21.305Z,7.70
2023-12-03T08:48:54.117Z,7.70
2023-12-03T08:50:28.605Z,6.40
2023-12-03T08:52:00.438Z,8.10
2023-12-03T08:53:32.483Z,6.90
2023-12-03T08:55:05.380Z,7.80
2023-12-03T08:56:37.163Z,8.10
2023-12-03T08:58:08.924Z,7.90
2023-12-03T08:59:41.111Z,7.00
2023-12-03T09:01:12.924Z,8.50
2023-12-03T09:02:46.518Z,7.80
2023-12-03T09:04:19.647Z,7.30
2023-12-03T09:05:51.526Z,6.90
2023-12-03T09:07:23.302Z,8.40
2023-12-03T09:08:55.117Z,8.00
2023-12-03T09:10:26.896Z,7.60
2023-12-03T09:11:58.782Z,6.50
2023-12-03T09:13:30.631Z,5.50
2023-12-03T09:15:02.521Z,8.10
2023-12-03T09:16:34.445Z,7.50
2023-12-03T09:18:06.591Z,6.90
2023-12-03T09:19:38.429Z,7.10
2023-12-03T09:21:13.090Z,8.00
2023-12-03T09:22:45.099Z,8.00
2023-12-03T09:24:17.784Z,7.40
2023-12-03T09:25:49.788Z,7.00
2023-12-03T09:27:21.646Z,7.20
2023-12-03T09:28:53.655Z,7.10
2023-12-03T09:30:25.444Z,7.70
2023-12-03T09:31:57.535Z,7.80
2023-12-03T09:33:29.662Z,7.30
2023-12-03T09:35:02.078Z,7.50
2023-12-03T09:36:35.177Z,5.90
2023-12-03T09:38:06.998Z,6.80
2023-12-03T09:39:38.811Z,6.70
2023-12-03T09:41:14.885Z,7.30
2023-12-03T09:42:48.672Z,6.90
2023-12-03T09:45:05.381Z,6.70
2023-12-03T09:46:40.148Z,7.20
2023-12-03T09:48:17.795Z,6.70
2023-12-03T09:49:55.353Z,7.10
2023-12-03T09:51:28.521Z,6.70
2023-12-03T09:53:03.759Z,7.50
2023-12-03T09:54:38.739Z,5.80
2023-12-03T09:56:13.092Z,6.70
2023-12-03T09:57:48.601Z,6.20
2023-12-03T09:59:20.607Z,7.40
2023-12-03T10:00:55.618Z,7.00
2023-12-03T10:02:30.160Z,6.90
2023-12-03T10:04:02.298Z,6.80
2023-12-03T10:05:34.183Z,6.30
2023-12-03T10:07:09.003Z,7.80
2023-12-03T10:08:43.265Z,7.40
2023-12-03T10:10:21.169Z,6.50
2023-12-03T10:12:04.175Z,6.40
2023-12-03T10:13:37.375Z,7.30
2023-12-03T10:15:13.676Z,6.80
2023-12-03T10:16:52.514Z,7.00
2023-12-03T10:18:24.627Z,6.40
2023-12-03T10:20:19.184Z,6.70
2023-12-03T10:21:53.145Z,5.90
2023-12-03T10:23:25.314Z,5.70
2023-12-03T10:24:57.116Z,6.30
2023-12-03T10:26:29.153Z,6.40
2023-12-03T10:28:04.943Z,5.60
2023-12-03T10:29:38.769Z,5.70
2023-12-03T10:31:14.113Z,5.80
2023-12-03T10:32:46.500Z,6.00
2023-12-03T10:34:19.448Z,5.70
2023-12-03T10:35:51.724Z,5.80
2023-12-03T10:37:23.614Z,6.00
2023-12-03T10:38:56.843Z,6.40
2023-12-03T10:40:28.875Z,5.90
2023-12-03T10:42:00.675Z,6.10
2023-12-03T10:43:38.890Z,6.10
2023-12-03T10:45:11.959Z,6.30
2023-12-03T10:46:43.759Z,6.20
2023-12-03T10:48:16.107Z,6.70
2023-12-03T10:49:51.950Z,6.20
2023-12-03T10:51:23.993Z,6.10
2023-12-03T10:53:01.365Z,6.20
2023-12-03T10:54:33.947Z,5.40
2023-12-03T10:56:08.734Z,6.30
2023-12-03T10:57:59.953Z,6.10
2023-12-03T10:59:35.649Z,6.00
2023-12-03T11:01:36.824Z,7.20
2023-12-03T11:03:29.338Z,5.90
2023-12-03T11:05:06.736Z,6.10
2023-12-03T11:06:41.958Z,4.90
2023-12-03T11:08:16.521Z,7.10
2023-12-03T11:09:52.714Z,5.80
2023-12-03T11:11:25.261Z,6.90
2023-12-03T11:12:58.998Z,6.50
2023-12-03T11:14:31.477Z,6.80
2023-12-03T11:16:07.917Z,4.50
2023-12-03T11:17:43.322Z,6.30
2023-12-03T11:19:20.750Z,6.50
2023-12-03T11:21:04.993Z,6.80
2023-12-03T11:23:30.961Z,6.70
2023-12-03T11:25:15.358Z,6.50
2023-12-03T11:26:47.234Z,4.40
2023-12-03T11:28:19.548Z,5.90
2023-12-03T11:29:57.232Z,6.50
2023-12-03T11:31:29.064Z,6.40
2023-12-03T11:33:01.495Z,6.90
2023-12-03T11:34:33.617Z,6.40
2023-12-03T11:36:06.064Z,6.70
2023-12-03T11:37:44.300Z,6.40
2023-12-03T11:39:16.720Z,6.50
2023-12-03T11:40:50.870Z,5.90
2023-12-03T11:42:25.684Z,6.40
2023-12-03T11:44:23.988Z,7.00
2023-12-03T11:45:56.851Z,5.40
2023-12-03T11:47:29.390Z,6.10
2023-12-03T11:49:01.462Z,5.40
2023-12-03T11:50:42.934Z,7.00
2023-12-03T11:52:16.296Z,5.70
2023-12-03T11:54:02.532Z,5.70
2023-12-03T11:55:38.482Z,7.10
2023-12-03T11:57:16.990Z,6.30
2023-12-03T11:58:48.788Z,7.00
2023-12-03T12:00:20.982Z,6.60
2023-12-03T12:01:53.008Z,6.80
2023-12-03T12:03:26.862Z,6.00
2023-12-03T12:05:06.194Z,6.10
2023-12-03T12:06:38.497Z,7.00
2023-12-03T12:08:10.427Z,6.30
2023-12-03T12:09:42.306Z,7.30
2023-12-03T12:11:14.248Z,7.20
2023-12-03T12:12:46.097Z,7.40
2023-12-03T12:14:19.516Z,6.70
2023-12-03T12:15:51.867Z,5.40
2023-12-03T12:17:23.643Z,7.30
2023-12-03T12:18:55.454Z,6.70
2023-12-03T12:20:31.762Z,5.20
2023-12-03T12:22:03.747Z,6.60
2023-12-03T12:23:35.843Z,6.30
2023-12-03T12:25:08.933Z,7.30
2023-12-03T12:26:40.844Z,6.50
2023-12-03T12:28:12.731Z,6.90
2023-12-03T12:29:46.374Z,7.20
2023-12-03T12:31:21.119Z,5.60
2023-12-03T12:32:59.845Z,6.90
2023-12-03T12:34:32.223Z,6.40
2023-12-03T12:36:04.807Z,6.00
2023-12-03T12:37:40.683Z,6.60
2023-12-03T12:39:30.443Z,5.90
2023-12-03T12:41:02.525Z,6.10
2023-12-03T12:42:34.583Z,6.30
2023-12-03T12:44:06.509Z,4.20
2023-12-03T12:45:40.508Z,7.10
2023-12-03T12:47:14.067Z,6.60
2023-12-03T12:48:45.926Z,5.70
2023-12-03T12:50:18.143Z,6.40
2023-12-03T12:51:50.452Z,6.10
2023-12-03T12:53:22.375Z,6.80
2023-12-03T12:54:58.988Z,7.10
2023-12-03T12:56:35.746Z,6.90
2023-12-03T12:58:09.166Z,6.80
2023-12-03T12:59:42.142Z,6.70
2023-12-03T13:01:14.020Z,6.20
2023-12-03T13:02:45.932Z,7.00
2023-12-03T13:04:17.891Z,6.70
2023-12-03T13:05:49.877Z,6.70
2023-12-03T13:07:21.752Z,6.40
2023-12-03T13:08:53.593Z,6.10
2023-12-03T13:10:25.440Z,6.30
2023-12-03T13:11:57.472Z,7.30
2023-12-03T13:13:29.275Z,7.00
2023-12-03T13:15:01.361Z,5.50
2023-12-03T13:16:33.451Z,6.60
2023-12-03T13:18:13.346Z,6.40
2023-12-03T13:19:52.012Z,7.00
2023-12-03T13:21:23.937Z,6.20
2023-12-03T13:22:55.795Z,6.50
2023-12-03T13:24:27.785Z,7.10
2023-12-03T13:25:59.858Z,8.30
2023-12-03T13:27:31.660Z,7.00
2023-12-03T13:29:03.471Z,7.80
2023-12-03T13:30:36.446Z,7.20
2023-12-03T13:32:08.558Z,6.90
2023-12-03T13:33:40.459Z,7.30
2023-12-03T13:35:15.957Z,7.20
2023-12-03T13:36:47.700Z,6.30
2023-12-03T13:38:19.487Z,6.40
2023-12-03T13:39:51.419Z,6.60
2023-12-03T13:41:30.018Z,7.20
2023-12-03T13:43:03.314Z,7.90
2023-12-03T13:44:35.293Z,7.30
2023-12-03T13:46:07.734Z,6.70
2023-12-03T13:47:39.581Z,7.50
2023-12-03T13:49:11.821Z,7.40
2023-12-03T13:50:43.739Z,7.50
2023-12-03T13:52:16.304Z,7.30
2023-12-03T13:53:49.650Z,6.80
2023-12-03T13:55:21.871Z,6.60
2023-12-03T13:56:53.669Z,7.30
2023-12-03T13:58:25.532Z,7.40
2023-12-03T13:59:57.507Z,7.50
2023-12-03T14:01:29.379Z,6.60
2023-12-03T14:03:01.462Z,7.70
2023-12-03T14:04:34.356Z,7.50
2023-12-03T14:06:07.296Z,6.80
2023-12-03T14:07:39.702Z,7.10
2023-12-03T14:09:16.247Z,7.20
2023-12-03T14:10:48.203Z,7.80
2023-12-03T14:12:20.132Z,6.80
2023-12-03T14:13:52.050Z,8.00
2023-12-03T14:15:23.897Z,7.70
2023-12-03T14:17:00.270Z,7.70
2023-12-03T14:18:32.195Z,8.30
2023-12-03T14:20:07.480Z,4.90
2023-12-03T14:21:39.373Z,6.10
2023-12-03T14:23:11.253Z,6.60
2023-12-03T14:24:45.458Z,6.50
2023-12-03T14:26:17.332Z,5.80
2023-12-03T14:27:49.224Z,6.80
2023-12-03T14:29:21.177Z,7.20
2023-12-03T14:30:53.687Z,8.10
2023-12-03T14:32:25.700Z,6.80
2023-12-03T14:33:57.600Z,5.90
2023-12-03T14:35:29.761Z,7.20
2023-12-03T14:37:01.562Z,6.10
2023-12-03T14:38:33.461Z,6.90
2023-12-03T14:40:08.701Z,7.80
2023-12-03T14:41:43.376Z,7.30
2023-12-03T14:43:15.342Z,7.20
2023-12-03T14:44:47.327Z,7.30
2023-12-03T14:46:21.357Z,8.40
2023-12-03T14:47:53.406Z,6.70
2023-12-03T14:49:25.229Z,7.20
2023-12-03T14:50:57.436Z,7.10
2023-12-03T14:52:29.222Z,8.10
2023-12-03T14:54:01.809Z,6.90
2023-12-03T14:55:33.650Z,6.40
2023-12-03T14:57:05.898Z,7.50
2023-12-03T14:58:37.795Z,6.80
2023-12-03T15:00:15.426Z,6.50
2023-12-03T15:01:47.623Z,7.50
2023-12-03T15:03:19.677Z,7.60
2023-12-03T15:04:51.496Z,6.40
2023-12-03T15:06:23.519Z,7.00
2023-12-03T15:07:57.742Z,5.80
2023-12-03T15:09:30.854Z,8.00
2023-12-03T15:11:02.779Z,8.20
2023-12-03T15:12:35.572Z,7.70
2023-12-03T15:14:07.864Z,6.80
2023-12-03T15:15:39.685Z,7.30
2023-12-03T15:17:11.718Z,7.30
2023-12-03T15:18:44.206Z,7.90
2023-12-03T15:20:17.019Z,8.50
2023-12-03T15:21:48.866Z,7.20
2023-12-03T15:23:21.203Z,6.30
2023-12-03T15:24:53.098Z,7.70
2023-12-03T15:26:24.825Z,7.20
2023-12-03T15:27:56.659Z,8.00
2023-12-03T15:29:28.605Z,7.40
2023-12-03T15:31:00.621Z,7.20
2023-12-03T15:32:33.153Z,8.20
2023-12-03T15:34:05.436Z,6.90
2023-12-03T15:35:37.433Z,7.80
2023-12-03T15:37:10.299Z,7.50
2023-12-03T15:38:42.084Z,6.90
2023-12-03T15:40:13.914Z,7.80
2023-12-03T15:41:45.752Z,6.90
2023-12-03T15:43:23.357Z,7.40
2023-12-03T15:45:01.735Z,6.40
2023-12-03T15:46:33.573Z,7.00
2023-12-03T15:48:05.944Z,7.70
2023-12-03T15:49:37.838Z,7.40
2023-12-03T15:51:10.275Z,8.00
2023-12-03T15:52:42.170Z,8.10
2023-12-03T15:54:13.964Z,7.40
2023-12-03T15:55:47.813Z,7.50
2023-12-03T15:57:19.668Z,8.00
2023-12-03T15:58:51.525Z,7.30
2023-12-03T16:00:23.620Z,6.70
2023-12-03T16:01:55.851Z,6.80
2023-12-03T16:03:28.019Z,8.20
2023-12-03T16:05:00.379Z,9.20
2023-12-03T16:06:32.229Z,8.20
2023-12-03T16:08:04.287Z,8.40
2023-12-03T16:09:36.199Z,9.50
2023-12-03T16:11:08.166Z,8.90
2023-12-03T16:12:40.038Z,7.90
2023-12-03T16:14:11.853Z,7.80
2023-12-03T16:15:43.803Z,7.30
2023-12-03T16:17:19.408Z,9.20
2023-12-03T16:18:55.809Z,11.30
2023-12-03T16:20:28.617Z,9.90
2023-12-03T16:22:00.628Z,8.60
2023-12-03T16:23:32.409Z,8.90
2023-12-03T16:25:05.365Z,8.70
2023-12-03T16:26:37.077Z,8.80
2023-12-03T16:28:08.837Z,8.20
2023-12-03T16:29:40.586Z,7.60
2023-12-03T16:31:12.410Z,8.50
2023-12-03T16:32:45.117Z,8.70
2023-12-03T16:34:28.688Z,9.00
2023-12-03T16:36:00.946Z,7.70
2023-12-03T16:37:33.545Z,7.80
2023-12-03T16:39:08.981Z,8.60
2023-12-03T16:40:40.692Z,8.20
2023-12-03T16:42:14.232Z,9.00
2023-12-03T16:43:46.261Z,8.40
2023-12-03T16:45:18.105Z,7.10
2023-12-03T16:46:49.947Z,8.50
2023-12-03T16:48:23.489Z,8.00
2023-12-03T16:49:55.507Z,9.10
2023-12-03T16:51:27.785Z,9.00
2023-12-03T16:53:00.952Z,8.30
2023-12-03T16:54:32.887Z,8.80
2023-12-03T16:56:07.367Z,8.20
2023-12-03T16:57:39.456Z,8.10
2023-12-03T16:59:11.455Z,7.90
2023-12-03T17:00:43.316Z,9.60
2023-12-03T17:02:15.531Z,8.70
2023-12-03T17:03:47.478Z,8.00
2023-12-03T17:05:19.380Z,7.40
2023-12-03T17:06:51.380Z,8.00
2023-12-03T17:08:23.440Z,7.50
2023-12-03T17:09:55.600Z,8.00
2023-12-03T17:11:27.545Z,7.10
2023-12-03T17:13:00.381Z,8.70
2023-12-03T17:14:32.153Z,6.50
2023-12-03T17:16:04.662Z,8.10
2023-12-03T17:17:37.078Z,8.60
2023-12-03T17:19:09.309Z,7.50
2023-12-03T17:20:45.107Z,7.40
2023-12-03T17:22:16.900Z,7.50
2023-12-03T17:23:48.711Z,8.40
2023-12-03T17:25:20.523Z,6.60
2023-12-03T17:26:54.728Z,7.80
2023-12-03T17:28:26.579Z,6.70
2023-12-03T17:29:58.695Z,8.80
2023-12-03T17:31:30.460Z,10.70
2023-12-03T17:33:02.407Z,7.80
2023-12-03T17:34:34.305Z,8.30
2023-12-03T17:36:08.190Z,7.70
2023-12-03T17:37:40.115Z,9.20
2023-12-03T17:39:12.087Z,8.30
2023-12-03T17:40:44.054Z,8.50
2023-12-03T17:42:18.850Z,8.40
2023-12-03T17:43:52.662Z,8.30
2023-12-03T17:45:27.541Z,9.10
2023-12-03T17:46:59.589Z,7.70
2023-12-03T17:48:31.817Z,7.00
2023-12-03T17:50:05.356Z,8.60
2023-12-03T17:51:37.224Z,7.10
2023-12-03T17:53:09.133Z,8.60
2023-12-03T17:54:41.082Z,7.30
2023-12-03T17:56:13.397Z,8.00
2023-12-03T17:57:45.210Z,6.50
2023-12-03T17:59:17.016Z,8.10
2023-12-03T18:00:50.246Z,8.10
2023-12-03T18:02:23.338Z,8.10
2023-12-03T18:03:55.198Z,7.00
2023-12-03T18:05:27.666Z,8.30
2023-12-03T18:06:59.596Z,6.90
2023-12-03T18:08:31.415Z,8.30
2023-12-03T18:10:04.670Z,7.50
2023-12-03T18:11:37.144Z,8.50
2023-12-03T18:13:09.601Z,8.10
2023-12-03T18:14:41.356Z,8.00
2023-12-03T18:16:13.274Z,6.60
2023-12-03T18:17:45.091Z,7.70
2023-12-03T18:19:17.129Z,10.60
2023-12-03T18:20:49.113Z,10.30
2023-12-03T18:22:20.996Z,6.90
2023-12-03T18:23:52.913Z,8.80
2023-12-03T18:25:24.759Z,8.20
2023-12-03T18:26:56.571Z,6.20
2023-12-03T18:28:28.343Z,7.30
2023-12-03T18:30:00.592Z,7.00
2023-12-03T18:31:32.477Z,6.60
2023-12-03T18:33:05.646Z,8.40
2023-12-03T18:34:37.541Z,7.40
2023-12-03T18:36:20.191Z,8.60
2023-12-03T18:37:52.108Z,8.00
2023-12-03T18:39:23.980Z,8.30
2023-12-03T18:40:57.258Z,8.10
2023-12-03T18:42:29.466Z,7.70
2023-12-03T18:44:23.717Z,5.70
2023-12-03T18:45:55.580Z,8.20
2023-12-03T18:47:27.681Z,7.30
2023-12-03T18:49:01.027Z,7.60
2023-12-03T18:50:33.299Z,7.80
2023-12-03T18:52:15.890Z,7.50
2023-12-03T18:53:47.707Z,7.40
2023-12-03T18:55:19.847Z,5.60
2023-12-03T18:56:51.638Z,6.20
2023-12-03T18:58:25.206Z,7.10
2023-12-03T18:59:57.557Z,7.60
2023-12-03T19:01:29.603Z,6.50
2023-12-03T19:03:01.563Z,7.10
2023-12-03T19:04:33.537Z,6.10
2023-12-03T19:06:05.920Z,6.30
2023-12-03T19:07:38.802Z,7.10
2023-12-03T19:09:17.141Z,5.40
2023-12-03T19:10:56.203Z,6.20
2023-12-03T19:12:28.706Z,7.50
2023-12-03T19:14:03.680Z,6.10
2023-12-03T19:15:37.724Z,8.40
2023-12-03T19:17:14.742Z,5.70
2023-12-03T19:18:48.402Z,7.70
2023-12-03T19:20:28.753Z,7.60
2023-12-03T19:22:01.001Z,7.20
2023-12-03T19:23:32.907Z,6.70
2023-12-03T19:25:06.414Z,7.40
2023-12-03T19:26:45.733Z,6.20
2023-12-03T19:28:17.943Z,7.00
2023-12-03T19:29:50.265Z,5.80
2023-12-03T19:31:22.104Z,6.70
2023-12-03T19:32:53.922Z,7.30
2023-12-03T19:34:25.814Z,7.20
2023-12-03T19:35:58.085Z,6.00
2023-12-03T19:37:30.458Z,6.80
2023-12-03T19:39:02.276Z,8.80
2023-12-03T19:40:34.960Z,6.50
2023-12-03T19:42:09.600Z,8.40
2023-12-03T19:43:44.782Z,7.90
2023-12-03T19:45:17.488Z,7.50
2023-12-03T19:46:53.894Z,8.20
2023-12-03T19:48:32.774Z,7.80
2023-12-03T19:50:07.809Z,7.90
2023-12-03T19:51:39.737Z,8.00
2023-12-03T19:53:13.422Z,7.30
2023-12-03T19:54:45.425Z,7.80
2023-12-03T19:56:17.822Z,8.90
2023-12-03T19:57:51.390Z,8.40
2023-12-03T19:59:23.222Z,8.40
2023-12-03T20:00:55.137Z,8.90
2023-12-03T20:02:27.204Z,8.50
2023-12-03T20:03:59.172Z,8.80
2023-12-03T20:05:31.173Z,8.00
2023-12-03T20:07:04.151Z,8.90
2023-12-03T20:08:36.358Z,8.50
2023-12-03T20:10:10.207Z,9.00
2023-12-03T20:11:50.346Z,9.80
2023-12-03T20:13:22.159Z,6.80
2023-12-03T20:14:58.156Z,8.50
2023-12-03T20:16:31.084Z,7.40
2023-12-03T20:18:03.095Z,9.40
2023-12-03T20:19:35.098Z,9.20
2023-12-03T20:21:09.543Z,8.30
2023-12-03T20:22:43.610Z,9.30
2023-12-03T20:24:16.770Z,8.60
2023-12-03T20:25:52.985Z,7.90
2023-12-03T20:27:25.460Z,6.80
2023-12-03T20:28:57.729Z,8.20
2023-12-03T20:30:30.400Z,7.00
2023-12-03T20:32:02.603Z,8.60